createdAt,value
2022-12-08T00:00:14.032Z,8.68
2022-12-08T00:01:24.179Z,8.48
2022-12-08T00:02:28.834Z,9.55
2022-12-08T00:03:32.449Z,8.77
2022-12-08T00:06:45.151Z,9.07
2022-12-08T00:08:07.489Z,8.15
2022-12-08T00:09:23.388Z,8.02
2022-12-08T00:10:48.389Z,8.30
2022-12-08T00:12:04.922Z,7.30
2022-12-08T00:13:08.036Z,6.13
2022-12-08T00:14:10.329Z,7.22
2022-12-08T00:15:13.690Z,8.52
2022-12-08T00:16:16.399Z,6.47
2022-12-08T00:17:20.797Z,7.53
2022-12-08T00:18:23.469Z,8.45
2022-12-08T00:19:29.357Z,8.45
2022-12-08T00:20:31.954Z,8.13
2022-12-08T00:21:37.565Z,8.20
2022-12-08T00:22:42.335Z,8.93
2022-12-08T00:23:47.976Z,8.88
2022-12-08T00:24:50.175Z,9.02
2022-12-08T00:25:52.852Z,8.02
2022-12-08T00:26:55.706Z,9.48
2022-12-08T00:28:00.375Z,8.68
2022-12-08T00:29:02.964Z,8.73
2022-12-08T00:30:10.720Z,8.80
2022-12-08T00:31:13.887Z,9.02
2022-12-08T00:32:18.497Z,8.52
2022-12-08T00:33:21.142Z,8.65
2022-12-08T00:34:29.346Z,8.57
2022-12-08T00:35:32.806Z,9.48
2022-12-08T00:36:38.087Z,9.13
2022-12-08T00:37:43.006Z,9.02
2022-12-08T00:38:48.921Z,8.60
2022-12-08T00:39:51.583Z,8.65
2022-12-08T00:40:56.614Z,9.70
2022-12-08T00:42:14.033Z,10.07
2022-12-08T00:43:16.327Z,9.07
2022-12-08T00:44:19.452Z,10.30
2022-12-08T00:45:22.330Z,9.18
2022-12-08T00:46:25.163Z,9.25
2022-12-08T00:47:27.519Z,9.00
2022-12-08T00:48:30.004Z,9.35
2022-12-08T00:49:35.964Z,8.82
2022-12-08T00:50:40.898Z,9.32
2022-12-08T00:51:44.374Z,9.57
2022-12-08T00:52:46.704Z,9.15
2022-12-08T00:53:49.054Z,9.15
2022-12-08T00:54:51.365Z,7.88
2022-12-08T00:55:54.809Z,8.88
2022-12-08T00:56:57.301Z,9.40
2022-12-08T00:57:59.740Z,9.25
2022-12-08T00:59:07.013Z,9.00
2022-12-08T01:00:10.962Z,8.40
2022-12-08T01:01:15.319Z,9.65
2022-12-08T01:02:19.360Z,8.57
2022-12-08T01:03:24.096Z,9.45
2022-12-08T01:04:30.681Z,7.55
2022-12-08T01:05:34.002Z,8.45
2022-12-08T01:06:40.067Z,9.00
2022-12-08T01:07:42.931Z,8.82
2022-12-08T01:08:47.055Z,8.93
2022-12-08T01:09:53.987Z,8.65
2022-12-08T01:10:59.989Z,8.35
2022-12-08T01:12:05.570Z,9.00
2022-12-08T01:13:08.552Z,8.73
2022-12-08T01:14:15.229Z,7.82
2022-12-08T01:15:18.628Z,8.18
2022-12-08T01:16:23.627Z,8.45
2022-12-08T01:17:26.355Z,8.15
2022-12-08T01:18:30.326Z,8.13
2022-12-08T01:19:34.617Z,8.80
2022-12-08T01:20:39.982Z,8.88
2022-12-08T01:21:45.441Z,7.53
2022-12-08T01:22:48.786Z,8.40
2022-12-08T01:23:54.528Z,7.40
2022-12-08T01:24:57.229Z,8.98
2022-12-08T01:26:09.891Z,7.80
2022-12-08T01:27:15.554Z,8.15
2022-12-08T01:28:23.362Z,7.97
2022-12-08T01:29:27.497Z,7.72
2022-12-08T01:30:33.469Z,8.40
2022-12-08T01:31:36.896Z,8.07
2022-12-08T01:32:39.819Z,7.85
2022-12-08T01:33:42.717Z,7.57
2022-12-08T01:34:45.055Z,7.90
2022-12-08T01:35:52.267Z,8.15
2022-12-08T01:36:56.106Z,8.35
2022-12-08T01:37:58.826Z,8.10
2022-12-08T01:39:07.537Z,8.65
2022-12-08T01:40:12.690Z,12.93
2022-12-08T01:41:18.063Z,7.82
2022-12-08T01:42:22.633Z,8.52
2022-12-08T01:43:27.216Z,8.43
2022-12-08T01:44:30.509Z,7.80
2022-12-08T01:45:33.375Z,7.72
2022-12-08T01:46:46.088Z,7.63
2022-12-08T01:47:51.437Z,7.90
2022-12-08T01:49:13.147Z,8.13
2022-12-08T01:50:21.396Z,7.70
2022-12-08T01:51:25.173Z,8.52
2022-12-08T01:52:42.712Z,8.40
2022-12-08T01:53:52.345Z,8.10
2022-12-08T01:55:15.839Z,7.35
2022-12-08T01:56:51.600Z,7.78
2022-12-08T01:58:02.065Z,8.07
2022-12-08T01:59:05.384Z,8.10
2022-12-08T02:00:11.303Z,7.18
2022-12-08T02:01:16.992Z,7.78
2022-12-08T02:02:19.730Z,8.43
2022-12-08T02:03:29.840Z,7.80
2022-12-08T02:04:32.614Z,11.00
2022-12-08T02:05:39.352Z,7.72
2022-12-08T02:06:45.221Z,8.05
2022-12-08T02:07:50.853Z,7.38
2022-12-08T02:08:55.735Z,6.88
2022-12-08T02:10:00.181Z,8.55
2022-12-08T02:11:09.813Z,7.80
2022-12-08T02:12:13.022Z,7.82
2022-12-08T02:13:35.496Z,8.32
2022-12-08T02:14:38.361Z,8.13
2022-12-08T02:15:48.058Z,7.70
2022-12-08T02:17:07.203Z,8.75
2022-12-08T02:18:31.372Z,7.65
2022-12-08T02:20:05.986Z,7.63
2022-12-08T02:21:19.322Z,7.63
2022-12-08T02:22:42.545Z,7.72
2022-12-08T02:24:09.497Z,7.63
2022-12-08T02:26:01.022Z,8.00
2022-12-08T02:27:22.477Z,7.53
2022-12-08T02:28:51.950Z,7.20
2022-12-08T02:30:30.803Z,8.13
2022-12-08T02:31:54.904Z,8.63
2022-12-08T02:33:27.047Z,7.18
2022-12-08T02:34:47.750Z,7.38
2022-12-08T02:36:08.790Z,7.88
2022-12-08T02:37:27.169Z,8.88
2022-12-08T02:38:44.929Z,8.05
2022-12-08T02:40:03.120Z,8.82
2022-12-08T02:41:32.731Z,8.43
2022-12-08T02:42:48.303Z,7.88
2022-12-08T02:44:15.036Z,8.02
2022-12-08T02:45:36.534Z,7.82
2022-12-08T02:46:49.127Z,8.35
2022-12-08T02:47:53.103Z,6.95
2022-12-08T02:48:57.378Z,7.82
2022-12-08T02:50:00.135Z,7.82
2022-12-08T02:51:04.012Z,8.35
2022-12-08T02:52:10.793Z,8.27
2022-12-08T02:54:15.480Z,8.20
2022-12-08T02:55:27.943Z,8.15
2022-12-08T02:56:42.615Z,8.85
2022-12-08T02:57:47.587Z,7.88
2022-12-08T02:58:55.425Z,8.20
2022-12-08T03:00:21.063Z,8.57
2022-12-08T03:01:32.764Z,8.98
2022-12-08T03:03:04.120Z,8.32
2022-12-08T03:04:10.671Z,8.30
2022-12-08T03:05:19.813Z,8.05
2022-12-08T03:06:51.904Z,8.10
2022-12-08T03:08:03.012Z,7.97
2022-12-08T03:09:14.616Z,8.48
2022-12-08T03:10:30.376Z,8.27
2022-12-08T03:11:43.461Z,8.05
2022-12-08T03:12:50.568Z,7.60
2022-12-08T03:13:59.397Z,8.13
2022-12-08T03:15:08.305Z,8.48
2022-12-08T03:16:16.669Z,8.88
2022-12-08T03:17:22.533Z,8.50
2022-12-08T03:18:32.253Z,8.57
2022-12-08T03:19:43.046Z,8.90
2022-12-08T03:20:49.492Z,8.10
2022-12-08T03:22:05.587Z,9.00
2022-12-08T03:23:15.186Z,8.15
2022-12-08T03:24:22.554Z,7.32
2022-12-08T03:25:34.364Z,8.20
2022-12-08T03:26:46.222Z,8.45
2022-12-08T03:27:49.753Z,7.88
2022-12-08T03:28:52.427Z,8.68
2022-12-08T03:29:57.894Z,8.00
2022-12-08T03:31:07.834Z,8.45
2022-12-08T03:32:40.416Z,8.93
2022-12-08T03:33:49.806Z,8.68
2022-12-08T03:34:56.657Z,7.97
2022-12-08T03:36:07.124Z,7.93
2022-12-08T03:37:09.823Z,8.35
2022-12-08T03:38:16.174Z,7.72
2022-12-08T03:39:18.765Z,7.75
2022-12-08T03:40:21.928Z,7.68
2022-12-08T03:41:25.698Z,8.15
2022-12-08T03:42:28.255Z,7.50
2022-12-08T03:43:35.596Z,8.73
2022-12-08T03:44:39.243Z,7.25
2022-12-08T03:45:42.901Z,7.85
2022-12-08T03:46:47.841Z,7.75
2022-12-08T03:47:50.921Z,8.65
2022-12-08T03:48:53.263Z,6.93
2022-12-08T03:49:55.726Z,8.77
2022-12-08T03:50:59.391Z,9.02
2022-12-08T03:52:02.961Z,8.52
2022-12-08T03:53:09.077Z,8.32
2022-12-08T03:54:12.801Z,9.43
2022-12-08T03:55:15.876Z,8.13
2022-12-08T03:56:26.382Z,8.57
2022-12-08T03:57:30.123Z,7.97
2022-12-08T03:58:46.106Z,8.45
2022-12-08T03:59:48.568Z,8.18
2022-12-08T04:00:55.949Z,8.40
2022-12-08T04:01:59.257Z,8.85
2022-12-08T04:03:01.629Z,8.48
2022-12-08T04:04:04.128Z,8.25
2022-12-08T04:05:07.876Z,10.10
2022-12-08T04:06:13.240Z,8.63
2022-12-08T04:07:18.155Z,9.50
2022-12-08T04:08:21.656Z,8.88
2022-12-08T04:09:29.508Z,8.68
2022-12-08T04:10:32.682Z,8.27
2022-12-08T04:11:35.175Z,8.35
2022-12-08T04:12:43.052Z,8.15
2022-12-08T04:13:47.085Z,8.63
2022-12-08T04:14:49.697Z,9.38
2022-12-08T04:15:56.118Z,8.35
2022-12-08T04:16:58.680Z,8.80
2022-12-08T04:18:04.117Z,8.88
2022-12-08T04:19:09.488Z,11.27
2022-12-08T04:20:13.477Z,10.13
2022-12-08T04:21:18.074Z,9.10
2022-12-08T04:22:21.072Z,9.02
2022-12-08T04:23:24.803Z,8.57
2022-12-08T04:24:27.479Z,8.15
2022-12-08T04:25:32.956Z,9.38
2022-12-08T04:26:36.057Z,8.95
2022-12-08T04:27:38.707Z,9.07
2022-12-08T04:28:41.665Z,9.43
2022-12-08T04:29:47.333Z,9.63
2022-12-08T04:30:52.200Z,9.70
2022-12-08T04:31:55.640Z,9.45
2022-12-08T04:33:03.426Z,8.63
2022-12-08T04:35:18.386Z,9.20
2022-12-08T04:36:28.316Z,7.97
2022-12-08T04:37:32.171Z,8.18
2022-12-08T04:38:43.464Z,9.50
2022-12-08T04:39:46.493Z,8.90
2022-12-08T04:40:48.642Z,9.52
2022-12-08T04:41:50.600Z,8.38
2022-12-08T04:42:57.727Z,9.23
2022-12-08T04:44:02.784Z,8.88
2022-12-08T04:45:07.157Z,8.77
2022-12-08T04:46:11.630Z,9.00
2022-12-08T04:47:15.491Z,8.65
2022-12-08T04:48:20.803Z,8.90
2022-12-08T04:54:35.490Z,7.95
2022-12-08T04:55:45.820Z,8.85
2022-12-08T04:56:48.719Z,8.98
2022-12-08T04:57:51.504Z,8.52
2022-12-08T04:58:53.937Z,8.32
2022-12-08T04:59:58.809Z,9.45
2022-12-08T05:01:04.068Z,8.07
2022-12-08T05:02:06.474Z,8.35
2022-12-08T05:03:09.702Z,8.95
2022-12-08T05:04:13.665Z,8.38
2022-12-08T05:05:17.061Z,9.07
2022-12-08T05:06:20.004Z,8.50
2022-12-08T05:07:22.167Z,7.85
2022-12-08T05:08:25.081Z,9.35
2022-12-08T05:09:27.417Z,7.88
2022-12-08T05:10:31.398Z,9.07
2022-12-08T05:11:34.165Z,8.52
2022-12-08T05:12:37.301Z,8.50
2022-12-08T05:13:39.688Z,9.15
2022-12-08T05:14:43.203Z,7.72
2022-12-08T05:15:49.730Z,7.72
2022-12-08T05:16:52.281Z,8.48
2022-12-08T05:17:55.229Z,8.30
2022-12-08T05:18:59.715Z,7.13
2022-12-08T05:20:17.970Z,8.10
2022-12-08T05:21:31.123Z,7.82
2022-12-08T05:22:37.032Z,8.13
2022-12-08T05:23:51.088Z,7.68
2022-12-08T05:24:53.475Z,7.88
2022-12-08T05:25:55.496Z,8.70
2022-12-08T05:26:58.776Z,8.73
2022-12-08T05:28:32.921Z,9.18
2022-12-08T05:29:26.924Z,8.68
2022-12-08T05:30:30.725Z,8.23
2022-12-08T05:31:32.855Z,9.68
2022-12-08T05:32:34.969Z,10.18
2022-12-08T05:33:37.207Z,8.30
2022-12-08T05:34:40.718Z,8.57
2022-12-08T05:35:44.903Z,7.20
2022-12-08T05:36:47.266Z,8.05
2022-12-08T05:37:50.689Z,8.27
2022-12-08T05:39:00.070Z,8.57
2022-12-08T05:40:07.017Z,8.60
2022-12-08T05:41:13.946Z,10.27
2022-12-08T05:42:20.470Z,10.88
2022-12-08T05:43:25.430Z,7.78
2022-12-08T05:44:28.761Z,7.82
2022-12-08T05:45:30.897Z,8.48
2022-12-08T05:46:34.615Z,8.85
2022-12-08T05:47:36.614Z,8.57
2022-12-08T05:48:40.418Z,8.27
2022-12-08T05:49:43.059Z,8.60
2022-12-08T05:50:49.511Z,8.32
2022-12-08T05:51:51.802Z,7.82
2022-12-08T05:52:56.571Z,9.35
2022-12-08T05:53:58.825Z,8.07
2022-12-08T05:55:01.132Z,8.90
2022-12-08T05:56:15.329Z,8.30
2022-12-08T05:57:38.434Z,7.75
2022-12-08T05:58:44.070Z,8.20
2022-12-08T05:59:55.165Z,7.38
2022-12-08T06:00:59.253Z,8.38
2022-12-08T06:02:16.132Z,7.22
2022-12-08T06:03:24.205Z,7.85
2022-12-08T06:04:36.741Z,7.80
2022-12-08T06:05:45.490Z,8.80
2022-12-08T06:06:50.798Z,8.10
2022-12-08T06:10:50.888Z,6.47
2022-12-08T06:12:00.203Z,8.35
2022-12-08T06:13:08.729Z,7.68
2022-12-08T06:14:27.886Z,6.82
2022-12-08T06:15:38.056Z,8.95
2022-12-08T06:16:43.835Z,7.68
2022-12-08T06:18:32.889Z,8.15
2022-12-08T06:21:00.758Z,7.72
2022-12-08T06:22:13.937Z,7.72
2022-12-08T06:23:26.127Z,8.27
2022-12-08T06:26:42.915Z,6.57
2022-12-08T06:27:58.832Z,6.50
2022-12-08T06:31:27.086Z,7.82
2022-12-08T06:32:29.771Z,8.25
2022-12-08T06:33:32.449Z,8.50
2022-12-08T06:34:35.200Z,7.88
2022-12-08T06:35:41.505Z,8.50
2022-12-08T06:36:48.072Z,8.07
2022-12-08T06:37:51.980Z,8.43
2022-12-08T06:38:55.491Z,8.02
2022-12-08T06:39:58.828Z,8.70
2022-12-08T06:41:01.956Z,9.02
2022-12-08T06:42:23.705Z,7.97
2022-12-08T06:43:27.849Z,8.63
2022-12-08T06:44:32.083Z,7.85
2022-12-08T06:45:37.467Z,8.35
2022-12-08T06:46:45.980Z,7.18
2022-12-08T06:47:49.739Z,9.50
2022-12-08T06:48:54.392Z,9.25
2022-12-08T06:49:58.148Z,8.52
2022-12-08T06:51:23.426Z,8.40
2022-12-08T06:52:30.369Z,8.27
2022-12-08T06:53:32.822Z,8.40
2022-12-08T06:54:41.474Z,8.40
2022-12-08T06:56:02.863Z,9.25
2022-12-08T06:57:08.190Z,8.18
2022-12-08T06:58:14.968Z,8.65
2022-12-08T06:59:21.560Z,8.85
2022-12-08T07:00:30.371Z,9.43
2022-12-08T07:01:37.978Z,8.82
2022-12-08T07:04:04.994Z,8.77
2022-12-08T07:05:10.633Z,8.85
2022-12-08T07:06:27.838Z,9.15
2022-12-08T07:07:38.670Z,9.35
2022-12-08T07:08:44.621Z,7.13
2022-12-08T07:09:52.052Z,8.48
2022-12-08T07:10:59.933Z,8.48
2022-12-08T07:12:09.346Z,7.82
2022-12-08T07:13:17.768Z,8.77
2022-12-08T07:14:25.282Z,9.05
2022-12-08T07:15:28.930Z,8.88
2022-12-08T07:16:34.094Z,9.00
2022-12-08T07:17:40.208Z,9.05
2022-12-08T07:18:44.280Z,8.27
2022-12-08T07:19:47.428Z,9.07
2022-12-08T07:21:07.638Z,8.63
2022-12-08T07:22:12.123Z,9.13
2022-12-08T07:23:14.746Z,8.45
2022-12-08T07:24:18.515Z,8.88
2022-12-08T07:25:22.841Z,9.00
2022-12-08T07:26:25.687Z,8.77
2022-12-08T07:27:29.468Z,8.82
2022-12-08T07:28:38.708Z,8.93
2022-12-08T07:29:41.481Z,9.20
2022-12-08T07:30:47.801Z,8.63
2022-12-08T07:32:58.042Z,8.30
2022-12-08T07:34:00.211Z,8.63
2022-12-08T07:35:03.503Z,8.15
2022-12-08T07:36:07.870Z,8.70
2022-12-08T07:37:15.741Z,8.27
2022-12-08T07:38:21.900Z,9.38
2022-12-08T07:39:26.516Z,7.85
2022-12-08T07:40:30.554Z,8.40
2022-12-08T07:41:36.009Z,8.35
2022-12-08T07:42:39.186Z,8.05
2022-12-08T07:43:44.105Z,7.95
2022-12-08T07:44:48.201Z,8.65
2022-12-08T07:45:52.327Z,7.60
2022-12-08T07:46:57.831Z,7.05
2022-12-08T07:48:00.891Z,7.15
2022-12-08T07:49:04.693Z,7.68
2022-12-08T07:50:08.463Z,6.97
2022-12-08T07:51:12.430Z,8.55
2022-12-08T07:52:24.412Z,8.00
2022-12-08T07:53:26.853Z,7.03
2022-12-08T07:54:29.362Z,7.45
2022-12-08T07:55:33.755Z,8.05
2022-12-08T07:56:43.259Z,7.55
2022-12-08T07:57:47.611Z,7.07
2022-12-08T07:58:54.286Z,7.30
2022-12-08T07:59:56.895Z,7.70
2022-12-08T08:00:59.845Z,7.07
2022-12-08T08:02:23.585Z,7.78
2022-12-08T08:03:30.787Z,7.57
2022-12-08T08:05:00.356Z,7.53
2022-12-08T08:06:04.601Z,8.50
2022-12-08T08:07:06.718Z,7.45
2022-12-08T08:08:11.142Z,7.80
2022-12-08T08:09:13.888Z,8.05
2022-12-08T08:10:18.351Z,7.45
2022-12-08T08:11:22.035Z,6.57
2022-12-08T08:12:33.727Z,8.52
2022-12-08T08:13:36.075Z,7.90
2022-12-08T08:14:39.519Z,8.77
2022-12-08T08:15:48.038Z,7.65
2022-12-08T08:16:51.200Z,8.73
2022-12-08T08:17:54.988Z,6.88
2022-12-08T08:18:58.611Z,7.95
2022-12-08T08:20:02.297Z,7.25
2022-12-08T08:21:22.204Z,9.20
2022-12-08T08:22:28.872Z,6.75
2022-12-08T08:23:31.426Z,7.10
2022-12-08T08:24:38.157Z,7.60
2022-12-08T08:25:44.687Z,7.53
2022-12-08T08:26:46.965Z,7.88
2022-12-08T08:27:50.257Z,7.07
2022-12-08T08:28:55.856Z,8.02
2022-12-08T08:29:59.295Z,7.50
2022-12-08T08:31:05.436Z,8.57
2022-12-08T08:32:08.913Z,9.25
2022-12-08T08:33:14.942Z,8.20
2022-12-08T08:34:29.845Z,8.30
2022-12-08T08:35:45.974Z,7.82
2022-12-08T08:36:50.252Z,8.65
2022-12-08T08:37:59.135Z,8.80
2022-12-08T08:39:05.045Z,8.50
2022-12-08T08:40:16.358Z,8.27
2022-12-08T08:41:21.926Z,8.35
2022-12-08T08:42:27.122Z,9.25
2022-12-08T08:43:37.542Z,7.72
2022-12-08T08:44:41.166Z,8.52
2022-12-08T08:45:48.231Z,7.20
2022-12-08T08:46:52.067Z,8.20
2022-12-08T08:47:59.115Z,7.97
2022-12-08T08:49:06.904Z,7.53
2022-12-08T08:50:10.960Z,8.35
2022-12-08T08:51:20.313Z,8.07
2022-12-08T08:52:27.097Z,7.93
2022-12-08T08:53:34.357Z,9.43
2022-12-08T08:54:50.443Z,8.02
2022-12-08T08:56:02.651Z,9.85
2022-12-08T08:57:09.720Z,8.60
2022-12-08T08:58:13.419Z,8.15
2022-12-08T08:59:16.655Z,8.40
2022-12-08T09:00:22.863Z,8.73
2022-12-08T09:01:30.107Z,8.10
2022-12-08T09:02:38.319Z,8.45
2022-12-08T09:03:44.684Z,8.07
2022-12-08T09:04:48.422Z,8.63
2022-12-08T09:05:56.032Z,9.80
2022-12-08T09:07:03.449Z,8.13
2022-12-08T09:08:07.405Z,8.50
2022-12-08T09:09:20.026Z,8.68
2022-12-08T09:10:24.459Z,9.15
2022-12-08T09:11:29.816Z,8.80
2022-12-08T09:12:35.962Z,8.45
2022-12-08T09:13:40.791Z,8.82
2022-12-08T09:14:44.148Z,9.10
2022-12-08T09:15:51.388Z,8.50
2022-12-08T09:16:59.903Z,8.70
2022-12-08T09:18:07.405Z,8.60
2022-12-08T09:19:13.230Z,8.77
2022-12-08T09:20:18.082Z,8.40
2022-12-08T09:21:29.856Z,8.50
2022-12-08T09:22:37.589Z,8.85
2022-12-08T09:23:43.768Z,9.43
2022-12-08T09:24:48.941Z,8.20
2022-12-08T09:25:53.495Z,7.82
2022-12-08T09:27:02.000Z,8.77
2022-12-08T09:28:07.934Z,8.60
2022-12-08T09:29:18.130Z,9.25
2022-12-08T09:30:26.289Z,8.65
2022-12-08T09:31:31.793Z,9.38
2022-12-08T09:32:37.345Z,9.10
2022-12-08T09:33:44.713Z,9.32
2022-12-08T09:34:53.358Z,8.63
2022-12-08T09:36:04.756Z,9.10
2022-12-08T09:37:09.996Z,9.00
2022-12-08T09:38:16.883Z,8.95
2022-12-08T09:39:24.746Z,9.13
2022-12-08T09:40:34.041Z,9.10
2022-12-08T09:41:48.511Z,9.63
2022-12-08T09:43:28.425Z,8.73
2022-12-08T09:44:46.910Z,9.43
2022-12-08T09:45:53.860Z,9.13
2022-12-08T09:47:02.886Z,8.73
2022-12-08T09:48:15.346Z,9.07
2022-12-08T09:49:34.476Z,9.82
2022-12-08T09:51:50.087Z,8.02
2022-12-08T09:53:01.905Z,9.38
2022-12-08T09:54:16.522Z,9.18
2022-12-08T09:55:33.269Z,9.52
2022-12-08T09:56:39.539Z,9.95
2022-12-08T09:57:50.445Z,12.02
2022-12-08T09:59:04.293Z,11.32
2022-12-08T10:00:13.687Z,11.40
2022-12-08T10:01:24.780Z,9.77
2022-12-08T10:02:33.220Z,10.52
2022-12-08T10:03:41.161Z,10.57
2022-12-08T10:05:52.937Z,9.07
2022-12-08T10:07:37.608Z,9.50
2022-12-08T10:09:07.879Z,8.80
2022-12-08T10:10:26.005Z,9.73
2022-12-08T10:11:47.904Z,8.82
2022-12-08T10:13:04.846Z,10.23
2022-12-08T10:14:26.268Z,9.57
2022-12-08T10:15:37.413Z,10.27
2022-12-08T10:16:44.996Z,9.07
2022-12-08T10:17:51.221Z,10.38
2022-12-08T10:19:23.721Z,9.23
2022-12-08T10:20:41.160Z,7.60
2022-12-08T10:21:46.565Z,9.73
2022-12-08T10:22:57.466Z,9.57
2022-12-08T10:24:07.207Z,8.95
2022-12-08T10:25:31.554Z,8.70
2022-12-08T10:26:33.908Z,8.85
2022-12-08T10:27:39.986Z,9.48
2022-12-08T10:28:45.327Z,9.38
2022-12-08T10:29:47.811Z,8.88
2022-12-08T10:30:50.786Z,10.63
2022-12-08T10:31:52.972Z,10.32
2022-12-08T10:32:55.204Z,9.38
2022-12-08T10:34:10.798Z,9.35
2022-12-08T10:35:22.547Z,9.20
2022-12-08T10:36:51.854Z,8.80
2022-12-08T10:38:12.731Z,9.45
2022-12-08T10:39:45.972Z,9.07
2022-12-08T10:40:50.533Z,9.57
2022-12-08T10:42:02.102Z,9.75
2022-12-08T10:43:14.483Z,10.65
2022-12-08T10:44:27.577Z,9.60
2022-12-08T10:45:42.130Z,10.13
2022-12-08T10:46:44.323Z,10.07
2022-12-08T10:47:57.701Z,10.05
2022-12-08T10:49:06.284Z,9.70
2022-12-08T10:50:29.499Z,9.50
2022-12-08T10:51:41.592Z,10.57
2022-12-08T10:52:43.705Z,10.18
2022-12-08T10:53:47.257Z,9.75
2022-12-08T10:54:54.418Z,10.20
2022-12-08T10:56:02.330Z,10.45
2022-12-08T10:57:04.811Z,10.85
2022-12-08T10:58:28.441Z,10.82
2022-12-08T10:59:34.087Z,10.23
2022-12-08T11:00:39.456Z,9.93
2022-12-08T11:01:48.453Z,10.25
2022-12-08T11:03:02.946Z,10.48
2022-12-08T11:04:20.011Z,10.02
2022-12-08T11:05:27.511Z,10.27
2022-12-08T11:06:29.628Z,9.75
2022-12-08T11:07:33.970Z,10.05
2022-12-08T11:08:49.866Z,10.35
2022-12-08T11:09:58.522Z,9.95
2022-12-08T11:11:00.721Z,10.23
2022-12-08T11:12:23.460Z,10.43
2022-12-08T11:13:30.274Z,10.82
2022-12-08T11:14:42.492Z,10.15
2022-12-08T11:15:46.470Z,9.93
2022-12-08T11:16:50.491Z,9.88
2022-12-08T11:18:30.855Z,10.15
2022-12-08T11:19:45.763Z,9.75
2022-12-08T11:20:47.799Z,9.60
2022-12-08T11:21:49.798Z,9.90
2022-12-08T11:22:54.828Z,11.07
2022-12-08T11:23:56.837Z,11.57
2022-12-08T11:25:21.108Z,10.52
2022-12-08T11:26:37.070Z,9.85
2022-12-08T11:27:51.384Z,11.07
2022-12-08T11:28:53.684Z,10.80
2022-12-08T11:29:56.579Z,10.50
2022-12-08T11:31:35.469Z,10.07
2022-12-08T11:32:41.845Z,10.30
2022-12-08T11:33:44.883Z,10.75
2022-12-08T11:35:00.122Z,10.40
2022-12-08T11:36:12.993Z,10.43
2022-12-08T11:37:34.467Z,9.98
2022-12-08T11:38:42.125Z,9.95
2022-12-08T11:39:51.029Z,10.73
2022-12-08T11:41:20.418Z,11.18
2022-12-08T11:42:31.266Z,10.45
2022-12-08T11:44:21.287Z,10.65
2022-12-08T11:45:32.740Z,10.90
2022-12-08T11:48:16.631Z,10.00
2022-12-08T11:49:26.739Z,11.00
2022-12-08T11:50:50.234Z,10.50
2022-12-08T11:52:00.207Z,11.00
2022-12-08T11:53:04.659Z,10.75
2022-12-08T11:54:27.969Z,10.73
2022-12-08T11:55:46.626Z,10.90
2022-12-08T11:56:56.453Z,10.10
2022-12-08T11:58:05.122Z,11.35
2022-12-08T11:59:41.944Z,9.90
2022-12-08T12:00:44.161Z,10.30
2022-12-08T12:01:47.581Z,10.07
2022-12-08T12:03:12.084Z,10.30
2022-12-08T12:04:20.548Z,9.80
2022-12-08T12:06:05.491Z,10.60
2022-12-08T12:07:25.964Z,10.35
2022-12-08T12:08:52.477Z,10.05
2022-12-08T12:10:09.697Z,10.85
2022-12-08T12:12:10.456Z,11.55
2022-12-08T12:13:44.047Z,11.27
2022-12-08T12:15:16.452Z,10.68
2022-12-08T12:17:03.409Z,10.93
2022-12-08T12:18:56.587Z,11.25
2022-12-08T12:20:04.315Z,11.32
2022-12-08T12:21:13.611Z,10.43
2022-12-08T12:22:21.836Z,11.15
2022-12-08T12:23:46.376Z,11.45
2022-12-08T12:24:52.697Z,11.30
2022-12-08T12:26:07.618Z,10.88
2022-12-08T12:27:15.333Z,9.93
2022-12-08T12:28:29.073Z,9.85
2022-12-08T12:29:38.976Z,9.70
2022-12-08T12:31:06.958Z,10.57
2022-12-08T12:32:13.611Z,10.10
2022-12-08T12:33:19.868Z,9.90
2022-12-08T12:34:30.313Z,10.18
2022-12-08T12:35:46.250Z,10.75
2022-12-08T12:37:04.669Z,9.23
2022-12-08T12:38:54.935Z,9.50
2022-12-08T12:40:04.204Z,9.25
2022-12-08T12:41:09.990Z,10.05
2022-12-08T12:42:47.677Z,9.98
2022-12-08T12:44:26.449Z,9.63
2022-12-08T12:45:34.859Z,9.52
2022-12-08T12:46:48.863Z,10.75
2022-12-08T12:47:56.580Z,10.13
2022-12-08T12:49:38.896Z,11.27
2022-12-08T12:50:44.012Z,10.10
2022-12-08T12:51:56.357Z,9.38
2022-12-08T12:53:16.482Z,10.15
2022-12-08T12:54:30.104Z,9.73
2022-12-08T12:55:57.783Z,10.38
2022-12-08T12:57:24.816Z,10.30
2022-12-08T12:58:45.838Z,9.10
2022-12-08T13:00:09.656Z,11.23
2022-12-08T13:01:15.489Z,10.43
2022-12-08T13:02:29.029Z,9.38
2022-12-08T13:03:35.051Z,9.68
2022-12-08T13:04:41.863Z,10.30
2022-12-08T13:05:55.125Z,10.65
2022-12-08T13:06:59.925Z,10.68
2022-12-08T13:08:11.493Z,10.07
2022-12-08T13:09:23.511Z,9.75
2022-12-08T13:10:38.442Z,9.95
2022-12-08T13:11:52.278Z,10.93
2022-12-08T13:13:18.708Z,9.60
2022-12-08T13:14:47.440Z,9.63
2022-12-08T13:15:55.666Z,10.48
2022-12-08T13:17:07.944Z,9.50
2022-12-08T13:18:22.335Z,10.23
2022-12-08T13:19:32.698Z,10.00
2022-12-08T13:20:48.484Z,10.85
2022-12-08T13:21:53.744Z,10.02
2022-12-08T13:23:23.883Z,10.13
2022-12-08T13:24:31.415Z,9.98
2022-12-08T13:27:06.039Z,10.40
2022-12-08T13:28:23.781Z,9.70
2022-12-08T13:29:28.773Z,9.35
2022-12-08T13:30:49.756Z,10.90
2022-12-08T13:31:56.151Z,9.75
2022-12-08T13:33:18.880Z,10.70
2022-12-08T13:34:48.181Z,10.30
2022-12-08T13:35:58.162Z,10.23
2022-12-08T13:37:12.034Z,9.77
2022-12-08T13:38:23.016Z,11.18
2022-12-08T13:40:37.901Z,9.80
2022-12-08T13:41:49.372Z,9.77
2022-12-08T13:43:10.789Z,10.20
2022-12-08T13:46:52.565Z,9.57
2022-12-08T13:47:33.241Z,10.02
2022-12-08T13:56:24.775Z,9.52
2022-12-08T13:57:01.031Z,10.63
2022-12-08T13:57:50.913Z,9.75
2022-12-08T13:59:38.857Z,10.32
2022-12-08T14:00:42.041Z,22.05
2022-12-08T14:01:50.050Z,10.90
2022-12-08T14:02:57.822Z,10.90
2022-12-08T14:04:34.103Z,10.55
2022-12-08T14:06:02.885Z,10.75
2022-12-08T14:07:03.862Z,9.80
2022-12-08T14:08:57.046Z,10.30
2022-12-08T14:10:26.012Z,10.32
2022-12-08T14:11:43.014Z,11.52
2022-12-08T14:13:07.236Z,10.18
2022-12-08T14:15:00.594Z,10.77
2022-12-08T14:15:57.731Z,10.82
2022-12-08T14:17:10.570Z,9.93
2022-12-08T14:18:29.634Z,10.95
2022-12-08T14:19:37.505Z,11.10
2022-12-08T14:21:12.595Z,10.35
2022-12-08T14:22:13.990Z,11.10
2022-12-08T14:23:21.714Z,10.35
2022-12-08T14:24:26.767Z,11.50
2022-12-08T14:25:30.402Z,10.45
2022-12-08T14:26:36.091Z,10.60
2022-12-08T14:27:43.976Z,10.63
2022-12-08T14:28:50.105Z,10.95
2022-12-08T14:29:56.562Z,11.43
2022-12-08T14:31:00.667Z,11.10
2022-12-08T14:32:02.893Z,11.30
2022-12-08T14:33:23.309Z,10.07
2022-12-08T14:34:36.284Z,11.02
2022-12-08T14:35:41.315Z,10.43
2022-12-08T14:36:46.338Z,10.93
2022-12-08T14:37:58.851Z,11.93
2022-12-08T14:39:09.100Z,11.40
2022-12-08T14:40:29.218Z,10.93
2022-12-08T14:42:24.788Z,10.43
2022-12-08T14:43:31.284Z,10.68
2022-12-08T14:44:40.068Z,10.70
2022-12-08T14:45:48.128Z,10.52
2022-12-08T14:47:09.175Z,10.95
2022-12-08T14:48:36.575Z,11.25
2022-12-08T14:49:40.955Z,11.00
2022-12-08T14:51:03.790Z,11.70
2022-12-08T14:52:11.923Z,10.90
2022-12-08T14:53:18.295Z,11.57
2022-12-08T14:54:21.128Z,11.18
2022-12-08T14:55:24.760Z,11.07
2022-12-08T14:56:38.270Z,10.93
2022-12-08T14:57:40.323Z,11.45
2022-12-08T14:58:42.645Z,11.52
2022-12-08T14:59:46.474Z,12.15
2022-12-08T15:00:52.528Z,11.82
2022-12-08T15:02:12.191Z,11.10
2022-12-08T15:03:17.438Z,11.40
2022-12-08T15:04:29.873Z,11.23
2022-12-08T15:05:32.832Z,11.38
2022-12-08T15:06:36.684Z,12.00
2022-12-08T15:07:53.364Z,11.63
2022-12-08T15:09:01.157Z,11.43
2022-12-08T15:10:08.400Z,12.23
2022-12-08T15:11:23.956Z,12.65
2022-12-08T15:13:34.493Z,11.60
2022-12-08T15:14:55.193Z,11.55
2022-12-08T15:16:01.830Z,10.95
2022-12-08T15:17:25.064Z,12.82
2022-12-08T15:18:41.641Z,11.18
2022-12-08T15:20:04.774Z,11.00
2022-12-08T15:21:09.796Z,12.45
2022-12-08T15:22:22.894Z,11.80
2022-12-08T15:23:31.393Z,11.38
2022-12-08T15:24:35.825Z,12.77
2022-12-08T15:25:38.010Z,12.25
2022-12-08T15:26:45.788Z,12.48
2022-12-08T15:27:50.760Z,12.35
2022-12-08T15:28:54.396Z,12.45
2022-12-08T15:29:58.411Z,13.00
2022-12-08T15:31:03.317Z,12.43
2022-12-08T15:32:06.358Z,13.35
2022-12-08T15:33:08.690Z,12.85
2022-12-08T15:34:11.007Z,12.57
2022-12-08T15:35:15.053Z,12.63
2022-12-08T15:36:21.170Z,12.50
2022-12-08T15:37:26.925Z,13.02
2022-12-08T15:38:30.346Z,13.43
2022-12-08T15:39:35.034Z,12.45
2022-12-08T15:40:37.067Z,13.95
2022-12-08T15:41:39.087Z,12.68
2022-12-08T15:42:44.036Z,13.18
2022-12-08T15:43:46.099Z,13.15
2022-12-08T15:44:48.100Z,13.23
2022-12-08T15:45:59.200Z,13.98
2022-12-08T15:47:04.700Z,13.75
2022-12-08T15:48:10.740Z,14.07
2022-12-08T15:49:24.103Z,12.95
2022-12-08T15:50:26.857Z,13.88
2022-12-08T15:51:31.272Z,13.73
2022-12-08T15:52:35.636Z,13.02
2022-12-08T15:53:38.497Z,13.82
2022-12-08T15:54:41.076Z,12.73
2022-12-08T15:56:03.575Z,14.50